sensor_id;sensor_type;location;lat;lon;timestamp;P1;durP1;ratioP1;P2;durP2;ratioP2
16385;SDS011;8302;51.154;4.456;2022-09-12T00:02:22;7.15;;;4.88;;
16385;SDS011;8302;51.154;4.456;2022-09-12T00:04:50;5.80;;;4.65;;
16385;SDS011;8302;51.154;4.456;2022-09-12T00:07:18;8.40;;;5.65;;
16385;SDS011;8302;51.154;4.456;2022-09-12T00:09:45;5.38;;;4.55;;
16385;SDS011;8302;51.154;4.456;2022-09-12T00:12:13;6.70;;;4.53;;
16385;SDS011;8302;51.154;4.456;2022-09-12T00:14:40;6.57;;;4.85;;
16385;SDS011;8302;51.154;4.456;2022-09-12T00:17:09;6.03;;;4.90;;
16385;SDS011;8302;51.154;4.456;2022-09-12T00:19:37;5.50;;;4.53;;
16385;SDS011;8302;51.154;4.456;2022-09-12T00:22:05;6.85;;;5.13;;
16385;SDS011;8302;51.154;4.456;2022-09-12T00:24:33;5.65;;;5.10;;
16385;SDS011;8302;51.154;4.456;2022-09-12T00:27:00;5.13;;;4.53;;
16385;SDS011;8302;51.154;4.456;2022-09-12T00:29:28;5.00;;;4.50;;
16385;SDS011;8302;51.154;4.456;2022-09-12T00:31:56;6.28;;;4.68;;
16385;SDS011;8302;51.154;4.456;2022-09-12T00:34:25;6.53;;;4.68;;
16385;SDS011;8302;51.154;4.456;2022-09-12T00:36:52;6.15;;;5.20;;
16385;SDS011;8302;51.154;4.456;2022-09-12T00:39:20;7.00;;;5.93;;
16385;SDS011;8302;51.154;4.456;2022-09-12T00:41:47;5.95;;;5.15;;
16385;SDS011;8302;51.154;4.456;2022-09-12T00:47:03;7.45;;;5.32;;
16385;SDS011;8302;51.154;4.456;2022-09-12T00:49:33;7.63;;;5.30;;
16385;SDS011;8302;51.154;4.456;2022-09-12T00:52:02;6.07;;;5.00;;
16385;SDS011;8302;51.154;4.456;2022-09-12T00:54:33;7.05;;;5.72;;
16385;SDS011;8302;51.154;4.456;2022-09-12T00:57:03;5.38;;;4.45;;
16385;SDS011;8302;51.154;4.456;2022-09-12T00:59:32;7.45;;;5.00;;
16385;SDS011;8302;51.154;4.456;2022-09-12T01:02:01;7.07;;;4.78;;
16385;SDS011;8302;51.154;4.456;2022-09-12T01:04:29;8.93;;;4.80;;
16385;SDS011;8302;51.154;4.456;2022-09-12T01:06:58;5.55;;;4.57;;
16385;SDS011;8302;51.154;4.456;2022-09-12T01:09:26;5.53;;;4.63;;
16385;SDS011;8302;51.154;4.456;2022-09-12T01:11:53;6.57;;;5.05;;
16385;SDS011;8302;51.154;4.456;2022-09-12T01:14:21;6.72;;;5.20;;
16385;SDS011;8302;51.154;4.456;2022-09-12T01:16:49;8.82;;;4.97;;
16385;SDS011;8302;51.154;4.456;2022-09-12T01:19:24;7.43;;;5.25;;
16385;SDS011;8302;51.154;4.456;2022-09-12T01:22:03;7.32;;;5.70;;
16385;SDS011;8302;51.154;4.456;2022-09-12T01:24:53;5.72;;;5.03;;
16385;SDS011;8302;51.154;4.456;2022-09-12T01:27:30;6.75;;;5.50;;
16385;SDS011;8302;51.154;4.456;2022-09-12T01:30:06;6.68;;;5.30;;
16385;SDS011;8302;51.154;4.456;2022-09-12T01:32:39;8.82;;;5.93;;
16385;SDS011;8302;51.154;4.456;2022-09-12T01:35:12;9.13;;;6.30;;
16385;SDS011;8302;51.154;4.456;2022-09-12T01:37:47;8.85;;;6.22;;
16385;SDS011;8302;51.154;4.456;2022-09-12T01:40:20;8.90;;;6.35;;
16385;SDS011;8302;51.154;4.456;2022-09-12T01:42:51;8.60;;;6.30;;
16385;SDS011;8302;51.154;4.456;2022-09-12T01:45:22;8.68;;;5.97;;
16385;SDS011;8302;51.154;4.456;2022-09-12T01:47:55;7.68;;;6.05;;
16385;SDS011;8302;51.154;4.456;2022-09-12T01:50:26;7.07;;;6.30;;
16385;SDS011;8302;51.154;4.456;2022-09-12T01:52:54;8.82;;;6.13;;
16385;SDS011;8302;51.154;4.456;2022-09-12T01:55:24;7.65;;;6.22;;
16385;SDS011;8302;51.154;4.456;2022-09-12T01:57:55;8.85;;;6.53;;
16385;SDS011;8302;51.154;4.456;2022-09-12T02:00:23;8.38;;;6.63;;
16385;SDS011;8302;51.154;4.456;2022-09-12T02:02:51;7.45;;;5.00;;
16385;SDS011;8302;51.154;4.456;2022-09-12T02:05:24;9.82;;;5.90;;
16385;SDS011;8302;51.154;4.456;2022-09-12T02:07:55;9.50;;;6.88;;
16385;SDS011;8302;51.154;4.456;2022-09-12T02:10:28;9.45;;;6.88;;
16385;SDS011;8302;51.154;4.456;2022-09-12T02:12:59;9.23;;;7.00;;
16385;SDS011;8302;51.154;4.456;2022-09-12T02:15:31;9.55;;;7.30;;
16385;SDS011;8302;51.154;4.456;2022-09-12T02:18:00;9.70;;;7.18;;
16385;SDS011;8302;51.154;4.456;2022-09-12T02:20:32;8.95;;;6.75;;
16385;SDS011;8302;51.154;4.456;2022-09-12T02:23:14;8.57;;;6.90;;
16385;SDS011;8302;51.154;4.456;2022-09-12T02:25:44;8.07;;;6.05;;
16385;SDS011;8302;51.154;4.456;2022-09-12T02:28:13;9.02;;;6.93;;
16385;SDS011;8302;51.154;4.456;2022-09-12T02:30:43;8.90;;;6.82;;
16385;SDS011;8302;51.154;4.456;2022-09-12T02:33:13;7.93;;;6.07;;
16385;SDS011;8302;51.154;4.456;2022-09-12T02:35:45;8.18;;;6.45;;
16385;SDS011;8302;51.154;4.456;2022-09-12T02:38:16;9.82;;;6.60;;
16385;SDS011;8302;51.154;4.456;2022-09-12T02:40:46;9.85;;;6.95;;
16385;SDS011;8302;51.154;4.456;2022-09-12T02:43:14;8.63;;;6.70;;
16385;SDS011;8302;51.154;4.456;2022-09-12T02:45:41;9.48;;;6.55;;
16385;SDS011;8302;51.154;4.456;2022-09-12T02:48:10;9.13;;;6.80;;
16385;SDS011;8302;51.154;4.456;2022-09-12T02:50:40;10.23;;;6.80;;
16385;SDS011;8302;51.154;4.456;2022-09-12T02:53:09;10.52;;;7.38;;
16385;SDS011;8302;51.154;4.456;2022-09-12T02:55:38;11.18;;;6.93;;
16385;SDS011;8302;51.154;4.456;2022-09-12T02:58:06;10.82;;;7.13;;
16385;SDS011;8302;51.154;4.456;2022-09-12T03:00:36;9.15;;;6.63;;
16385;SDS011;8302;51.154;4.456;2022-09-12T03:03:15;9.88;;;7.40;;
16385;SDS011;8302;51.154;4.456;2022-09-12T03:05:45;10.00;;;6.65;;
16385;SDS011;8302;51.154;4.456;2022-09-12T03:08:19;10.73;;;7.18;;
16385;SDS011;8302;51.154;4.456;2022-09-12T03:10:55;9.02;;;6.68;;
16385;SDS011;8302;51.154;4.456;2022-09-12T03:13:28;9.00;;;6.38;;
16385;SDS011;8302;51.154;4.456;2022-09-12T03:16:01;9.35;;;7.30;;
16385;SDS011;8302;51.154;4.456;2022-09-12T03:18:33;12.57;;;7.65;;
16385;SDS011;8302;51.154;4.456;2022-09-12T03:21:07;8.38;;;6.80;;
16385;SDS011;8302;51.154;4.456;2022-09-12T03:23:40;11.38;;;7.88;;
16385;SDS011;8302;51.154;4.456;2022-09-12T03:26:09;10.90;;;7.53;;
16385;SDS011;8302;51.154;4.456;2022-09-12T03:28:39;8.52;;;7.30;;
16385;SDS011;8302;51.154;4.456;2022-09-12T03:31:12;9.70;;;6.70;;
16385;SDS011;8302;51.154;4.456;2022-09-12T03:33:40;10.43;;;8.50;;
16385;SDS011;8302;51.154;4.456;2022-09-12T03:36:10;10.73;;;7.35;;
16385;SDS011;8302;51.154;4.456;2022-09-12T03:38:42;10.57;;;7.93;;
16385;SDS011;8302;51.154;4.456;2022-09-12T03:41:09;12.32;;;8.07;;
16385;SDS011;8302;51.154;4.456;2022-09-12T03:43:37;10.32;;;7.28;;
16385;SDS011;8302;51.154;4.456;2022-09-12T03:46:05;10.23;;;7.13;;
16385;SDS011;8302;51.154;4.456;2022-09-12T03:48:32;10.88;;;7.25;;
16385;SDS011;8302;51.154;4.456;2022-09-12T03:51:00;12.35;;;7.45;;
16385;SDS011;8302;51.154;4.456;2022-09-12T03:53:28;10.85;;;7.97;;
16385;SDS011;8302;51.154;4.456;2022-09-12T03:55:57;11.40;;;7.43;;
16385;SDS011;8302;51.154;4.456;2022-09-12T03:58:28;12.23;;;7.60;;
16385;SDS011;8302;51.154;4.456;2022-09-12T04:00:56;10.38;;;7.35;;
16385;SDS011;8302;51.154;4.456;2022-09-12T04:03:24;11.55;;;7.68;;
16385;SDS011;8302;51.154;4.456;2022-09-12T04:05:51;12.20;;;7.78;;
16385;SDS011;8302;51.154;4.456;2022-09-12T04:08:19;10.82;;;7.63;;
16385;SDS011;8302;51.154;4.456;2022-09-12T04:10:46;11.88;;;8.40;;
16385;SDS011;8302;51.154;4.456;2022-09-12T04:13:15;10.00;;;7.07;;
16385;SDS011;8302;51.154;4.456;2022-09-12T04:15:43;10.57;;;7.70;;
16385;SDS011;8302;51.154;4.456;2022-09-12T04:18:10;11.68;;;7.65;;
16385;SDS011;8302;51.154;4.456;2022-09-12T04:20:38;12.18;;;7.78;;
16385;SDS011;8302;51.154;4.456;2022-09-12T04:23:06;12.45;;;8.48;;
16385;SDS011;8302;51.154;4.456;2022-09-12T04:25:33;10.25;;;7.47;;
16385;SDS011;8302;51.154;4.456;2022-09-12T04:28:01;11.95;;;7.95;;
16385;SDS011;8302;51.154;4.456;2022-09-12T04:30:31;10.75;;;7.50;;
16385;SDS011;8302;51.154;4.456;2022-09-12T04:32:59;14.00;;;7.43;;
16385;SDS011;8302;51.154;4.456;2022-09-12T04:35:33;11.52;;;7.88;;
16385;SDS011;8302;51.154;4.456;2022-09-12T04:38:01;13.55;;;7.80;;
16385;SDS011;8302;51.154;4.456;2022-09-12T04:40:29;11.23;;;7.95;;
16385;SDS011;8302;51.154;4.456;2022-09-12T04:42:57;12.80;;;8.50;;
16385;SDS011;8302;51.154;4.456;2022-09-12T04:45:24;10.07;;;7.45;;
16385;SDS011;8302;51.154;4.456;2022-09-12T04:47:53;11.40;;;7.10;;
16385;SDS011;8302;51.154;4.456;2022-09-12T04:50:21;11.40;;;7.60;;
16385;SDS011;8302;51.154;4.456;2022-09-12T04:52:49;9.82;;;7.57;;
16385;SDS011;8302;51.154;4.456;2022-09-12T04:55:16;9.77;;;7.45;;
16385;SDS011;8302;51.154;4.456;2022-09-12T04:57:44;10.48;;;7.38;;
16385;SDS011;8302;51.154;4.456;2022-09-12T05:00:12;11.43;;;7.63;;
16385;SDS011;8302;51.154;4.456;2022-09-12T05:02:40;13.43;;;7.50;;
16385;SDS011;8302;51.154;4.456;2022-09-12T05:05:09;10.82;;;7.45;;
16385;SDS011;8302;51.154;4.456;2022-09-12T05:07:36;13.88;;;8.02;;
16385;SDS011;8302;51.154;4.456;2022-09-12T05:10:04;10.60;;;7.38;;
16385;SDS011;8302;51.154;4.456;2022-09-12T05:12:32;14.70;;;8.35;;
16385;SDS011;8302;51.154;4.456;2022-09-12T05:15:00;9.93;;;7.70;;
16385;SDS011;8302;51.154;4.456;2022-09-12T05:17:27;13.13;;;8.27;;
16385;SDS011;8302;51.154;4.456;2022-09-12T05:19:55;13.25;;;8.15;;
16385;SDS011;8302;51.154;4.456;2022-09-12T05:22:24;10.95;;;7.60;;
16385;SDS011;8302;51.154;4.456;2022-09-12T05:24:52;9.25;;;7.10;;
16385;SDS011;8302;51.154;4.456;2022-09-12T05:27:19;10.30;;;7.78;;
16385;SDS011;8302;51.154;4.456;2022-09-12T05:29:47;6.38;;;2.42;;
16385;SDS011;8302;51.154;4.456;2022-09-12T05:32:14;6.22;;;2.55;;
16385;SDS011;8302;51.154;4.456;2022-09-12T05:34:42;7.00;;;2.75;;
16385;SDS011;8302;51.154;4.456;2022-09-12T05:37:09;5.78;;;2.80;;
16385;SDS011;8302;51.154;4.456;2022-09-12T05:39:39;4.90;;;2.92;;
16385;SDS011;8302;51.154;4.456;2022-09-12T05:42:07;4.18;;;2.83;;
16385;SDS011;8302;51.154;4.456;2022-09-12T05:44:35;4.47;;;2.67;;
16385;SDS011;8302;51.154;4.456;2022-09-12T05:47:02;4.13;;;3.08;;
16385;SDS011;8302;51.154;4.456;2022-09-12T05:49:30;7.53;;;3.33;;
16385;SDS011;8302;51.154;4.456;2022-09-12T05:51:57;6.07;;;2.75;;
16385;SDS011;8302;51.154;4.456;2022-09-12T05:54:25;7.28;;;3.08;;
16385;SDS011;8302;51.154;4.456;2022-09-12T05:56:58;6.85;;;3.50;;
16385;SDS011;8302;51.154;4.456;2022-09-12T05:59:25;5.90;;;3.05;;
16385;SDS011;8302;51.154;4.456;2022-09-12T06:01:53;6.03;;;3.20;;
16385;SDS011;8302;51.154;4.456;2022-09-12T06:04:21;4.72;;;3.08;;
16385;SDS011;8302;51.154;4.456;2022-09-12T06:06:50;8.48;;;3.45;;
16385;SDS011;8302;51.154;4.456;2022-09-12T06:09:18;8.38;;;3.33;;
16385;SDS011;8302;51.154;4.456;2022-09-12T06:11:46;7.38;;;3.35;;
16385;SDS011;8302;51.154;4.456;2022-09-12T06:14:15;6.28;;;3.42;;
16385;SDS011;8302;51.154;4.456;2022-09-12T06:16:44;6.50;;;3.13;;
16385;SDS011;8302;51.154;4.456;2022-09-12T06:19:13;5.85;;;3.08;;
16385;SDS011;8302;51.154;4.456;2022-09-12T06:21:41;5.10;;;2.85;;
16385;SDS011;8302;51.154;4.456;2022-09-12T06:24:09;5.28;;;3.25;;
16385;SDS011;8302;51.154;4.456;2022-09-12T06:26:36;5.82;;;3.33;;
16385;SDS011;8302;51.154;4.456;2022-09-12T06:29:04;4.65;;;2.75;;
16385;SDS011;8302;51.154;4.456;2022-09-12T06:31:34;6.10;;;3.13;;
16385;SDS011;8302;51.154;4.456;2022-09-12T06:34:04;5.38;;;3.20;;
16385;SDS011;8302;51.154;4.456;2022-09-12T06:36:33;5.07;;;2.30;;
16385;SDS011;8302;51.154;4.456;2022-09-12T06:39:02;7.25;;;3.58;;
16385;SDS011;8302;51.154;4.456;2022-09-12T06:41:31;4.43;;;2.72;;
16385;SDS011;8302;51.154;4.456;2022-09-12T06:43:59;3.35;;;2.72;;
16385;SDS011;8302;51.154;4.456;2022-09-12T06:46:26;4.32;;;2.47;;
16385;SDS011;8302;51.154;4.456;2022-09-12T06:48:55;3.20;;;2.60;;
16385;SDS011;8302;51.154;4.456;2022-09-12T06:51:25;4.13;;;2.60;;
16385;SDS011;8302;51.154;4.456;2022-09-12T06:53:53;3.85;;;2.58;;
16385;SDS011;8302;51.154;4.456;2022-09-12T06:56:22;4.57;;;2.65;;
16385;SDS011;8302;51.154;4.456;2022-09-12T06:58:50;3.70;;;2.65;;
16385;SDS011;8302;51.154;4.456;2022-09-12T07:01:18;4.13;;;2.45;;
16385;SDS011;8302;51.154;4.456;2022-09-12T07:03:47;4.78;;;2.83;;
16385;SDS011;8302;51.154;4.456;2022-09-12T07:06:17;4.28;;;3.03;;
16385;SDS011;8302;51.154;4.456;2022-09-12T07:08:45;4.05;;;2.83;;
16385;SDS011;8302;51.154;4.456;2022-09-12T07:11:14;6.90;;;3.13;;
16385;SDS011;8302;51.154;4.456;2022-09-12T07:13:42;5.85;;;3.38;;
16385;SDS011;8302;51.154;4.456;2022-09-12T07:16:10;5.75;;;3.83;;
16385;SDS011;8302;51.154;4.456;2022-09-12T07:18:48;6.00;;;3.28;;
16385;SDS011;8302;51.154;4.456;2022-09-12T07:21:17;3.95;;;3.08;;
16385;SDS011;8302;51.154;4.456;2022-09-12T07:23:45;3.97;;;3.00;;
16385;SDS011;8302;51.154;4.456;2022-09-12T07:26:13;4.53;;;2.85;;
16385;SDS011;8302;51.154;4.456;2022-09-12T07:28:41;9.93;;;6.72;;
16385;SDS011;8302;51.154;4.456;2022-09-12T07:31:10;10.93;;;6.65;;
16385;SDS011;8302;51.154;4.456;2022-09-12T07:33:38;11.18;;;6.70;;
16385;SDS011;8302;51.154;4.456;2022-09-12T07:36:06;12.93;;;7.00;;
16385;SDS011;8302;51.154;4.456;2022-09-12T07:38:38;10.27;;;6.30;;
16385;SDS011;8302;51.154;4.456;2022-09-12T07:41:09;6.32;;;3.95;;
16385;SDS011;8302;51.154;4.456;2022-09-12T07:43:37;7.65;;;5.22;;
16385;SDS011;8302;51.154;4.456;2022-09-12T07:46:05;12.10;;;5.10;;
16385;SDS011;8302;51.154;4.456;2022-09-12T07:48:33;9.27;;;6.07;;
16385;SDS011;8302;51.154;4.456;2022-09-12T07:51:01;7.75;;;5.68;;
16385;SDS011;8302;51.154;4.456;2022-09-12T07:53:30;8.18;;;5.68;;
16385;SDS011;8302;51.154;4.456;2022-09-12T07:55:59;10.60;;;5.82;;
16385;SDS011;8302;51.154;4.456;2022-09-12T07:58:28;9.57;;;5.60;;
16385;SDS011;8302;51.154;4.456;2022-09-12T08:01:00;7.70;;;5.93;;
16385;SDS011;8302;51.154;4.456;2022-09-12T08:03:28;8.30;;;5.43;;
16385;SDS011;8302;51.154;4.456;2022-09-12T08:06:01;7.07;;;5.30;;
16385;SDS011;8302;51.154;4.456;2022-09-12T08:08:29;8.80;;;5.53;;
16385;SDS011;8302;51.154;4.456;2022-09-12T08:10:57;10.18;;;5.78;;
16385;SDS011;8302;51.154;4.456;2022-09-12T08:13:26;6.75;;;5.20;;
16385;SDS011;8302;51.154;4.456;2022-09-12T08:15:56;8.27;;;5.30;;
16385;SDS011;8302;51.154;4.456;2022-09-12T08:18:25;9.27;;;5.05;;
16385;SDS011;8302;51.154;4.456;2022-09-12T08:20:56;9.15;;;4.65;;
16385;SDS011;8302;51.154;4.456;2022-09-12T08:23:24;8.85;;;5.55;;
16385;SDS011;8302;51.154;4.456;2022-09-12T08:25:54;7.63;;;5.07;;
16385;SDS011;8302;51.154;4.456;2022-09-12T08:28:22;12.73;;;5.63;;
16385;SDS011;8302;51.154;4.456;2022-09-12T08:30:51;7.78;;;5.68;;
16385;SDS011;8302;51.154;4.456;2022-09-12T08:33:19;7.75;;;5.53;;
16385;SDS011;8302;51.154;4.456;2022-09-12T08:35:46;8.07;;;5.88;;
16385;SDS011;8302;51.154;4.456;2022-09-12T08:38:14;5.78;;;4.40;;
16385;SDS011;8302;51.154;4.456;2022-09-12T08:40:43;8.10;;;4.53;;
16385;SDS011;8302;51.154;4.456;2022-09-12T08:43:16;9.25;;;5.55;;
16385;SDS011;8302;51.154;4.456;2022-09-12T08:45:52;8.68;;;5.22;;
16385;SDS011;8302;51.154;4.456;2022-09-12T08:48:20;6.43;;;3.38;;
16385;SDS011;8302;51.154;4.456;2022-09-12T08:50:48;6.65;;;3.30;;
16385;SDS011;8302;51.154;4.456;2022-09-12T08:53:17;7.45;;;3.70;;
16385;SDS011;8302;51.154;4.456;2022-09-12T08:55:46;4.13;;;3.00;;
16385;SDS011;8302;51.154;4.456;2022-09-12T08:58:17;3.83;;;3.33;;
16385;SDS011;8302;51.154;4.456;2022-09-12T09:00:48;4.70;;;2.95;;
16385;SDS011;8302;51.154;4.456;2022-09-12T09:03:28;5.25;;;3.13;;
16385;SDS011;8302;51.154;4.456;2022-09-12T09:05:59;8.07;;;2.47;;
16385;SDS011;8302;51.154;4.456;2022-09-12T09:08:38;3.63;;;2.50;;
16385;SDS011;8302;51.154;4.456;2022-09-12T09:11:16;3.53;;;2.50;;
16385;SDS011;8302;51.154;4.456;2022-09-12T09:13:49;3.50;;;2.20;;
16385;SDS011;8302;51.154;4.456;2022-09-12T09:16:37;5.35;;;3.15;;
16385;SDS011;8302;51.154;4.456;2022-09-12T09:19:09;3.70;;;2.72;;
16385;SDS011;8302;51.154;4.456;2022-09-12T09:21:39;3.47;;;2.53;;
16385;SDS011;8302;51.154;4.456;2022-09-12T09:24:09;4.32;;;2.70;;
16385;SDS011;8302;51.154;4.456;2022-09-12T09:26:39;5.00;;;2.75;;
16385;SDS011;8302;51.154;4.456;2022-09-12T09:29:10;3.20;;;2.30;;
16385;SDS011;8302;51.154;4.456;2022-09-12T09:31:40;2.88;;;2.10;;
16385;SDS011;8302;51.154;4.456;2022-09-12T09:34:11;4.43;;;2.45;;
16385;SDS011;8302;51.154;4.456;2022-09-12T09:36:42;2.25;;;1.75;;
16385;SDS011;8302;51.154;4.456;2022-09-12T09:39:13;4.38;;;1.85;;
16385;SDS011;8302;51.154;4.456;2022-09-12T09:41:48;3.95;;;2.95;;
16385;SDS011;8302;51.154;4.456;2022-09-12T09:44:21;3.03;;;2.17;;
16385;SDS011;8302;51.154;4.456;2022-09-12T09:46:51;2.42;;;1.92;;
16385;SDS011;8302;51.154;4.456;2022-09-12T09:49:20;6.30;;;2.47;;
16385;SDS011;8302;51.154;4.456;2022-09-12T09:51:49;2.75;;;2.20;;
16385;SDS011;8302;51.154;4.456;2022-09-12T09:54:17;4.13;;;2.63;;
16385;SDS011;8302;51.154;4.456;2022-09-12T09:56:46;3.58;;;2.60;;
16385;SDS011;8302;51.154;4.456;2022-09-12T09:59:14;3.60;;;2.05;;
16385;SDS011;8302;51.154;4.456;2022-09-12T10:01:43;4.38;;;1.95;;
16385;SDS011;8302;51.154;4.456;2022-09-12T10:04:18;2.50;;;1.73;;
16385;SDS011;8302;51.154;4.456;2022-09-12T10:06:48;3.17;;;2.70;;
16385;SDS011;8302;51.154;4.456;2022-09-12T10:09:18;1.35;;;1.10;;
16385;SDS011;8302;51.154;4.456;2022-09-12T10:11:46;5.05;;;2.40;;
16385;SDS011;8302;51.154;4.456;2022-09-12T10:14:28;3.28;;;2.33;;
16385;SDS011;8302;51.154;4.456;2022-09-12T10:16:56;3.75;;;1.95;;
16385;SDS011;8302;51.154;4.456;2022-09-12T10:19:32;3.45;;;1.85;;
16385;SDS011;8302;51.154;4.456;2022-09-12T10:22:01;3.58;;;1.98;;
16385;SDS011;8302;51.154;4.456;2022-09-12T10:24:31;3.83;;;2.38;;
16385;SDS011;8302;51.154;4.456;2022-09-12T10:27:05;3.63;;;2.67;;
16385;SDS011;8302;51.154;4.456;2022-09-12T10:29:34;4.95;;;2.03;;
16385;SDS011;8302;51.154;4.456;2022-09-12T10:32:06;2.75;;;2.20;;
16385;SDS011;8302;51.154;4.456;2022-09-12T10:34:35;3.30;;;1.95;;
16385;SDS011;8302;51.154;4.456;2022-09-12T10:37:06;3.72;;;2.63;;
16385;SDS011;8302;51.154;4.456;2022-09-12T10:39:34;3.70;;;1.98;;
16385;SDS011;8302;51.154;4.456;2022-09-12T10:42:02;5.90;;;1.88;;
16385;SDS011;8302;51.154;4.456;2022-09-12T10:44:31;4.80;;;2.63;;
16385;SDS011;8302;51.154;4.456;2022-09-12T10:47:00;2.58;;;2.13;;
16385;SDS011;8302;51.154;4.456;2022-09-12T10:49:45;3.13;;;2.17;;
16385;SDS011;8302;51.154;4.456;2022-09-12T10:52:19;2.28;;;1.95;;
16385;SDS011;8302;51.154;4.456;2022-09-12T10:54:48;1.83;;;1.35;;
16385;SDS011;8302;51.154;4.456;2022-09-12T10:57:20;2.45;;;2.00;;
16385;SDS011;8302;51.154;4.456;2022-09-12T11:00:02;4.40;;;1.83;;
16385;SDS011;8302;51.154;4.456;2022-09-12T11:02:34;2.63;;;1.60;;
16385;SDS011;8302;51.154;4.456;2022-09-12T11:05:06;2.05;;;1.73;;
16385;SDS011;8302;51.154;4.456;2022-09-12T11:07:42;4.05;;;1.98;;
16385;SDS011;8302;51.154;4.456;2022-09-12T11:10:15;3.03;;;2.33;;
16385;SDS011;8302;51.154;4.456;2022-09-12T11:12:46;2.22;;;2.03;;
16385;SDS011;8302;51.154;4.456;2022-09-12T11:15:27;3.65;;;2.10;;
16385;SDS011;8302;51.154;4.456;2022-09-12T11:17:59;2.72;;;2.30;;
16385;SDS011;8302;51.154;4.456;2022-09-12T11:20:41;5.65;;;2.15;;
16385;SDS011;8302;51.154;4.456;2022-09-12T11:23:21;2.22;;;2.03;;
16385;SDS011;8302;51.154;4.456;2022-09-12T11:25:56;2.75;;;2.25;;
16385;SDS011;8302;51.154;4.456;2022-09-12T11:28:30;3.30;;;2.35;;
16385;SDS011;8302;51.154;4.456;2022-09-12T11:33:50;3.50;;;2.20;;
16385;SDS011;8302;51.154;4.456;2022-09-12T11:36:25;3.75;;;1.98;;
16385;SDS011;8302;51.154;4.456;2022-09-12T11:39:02;2.13;;;1.73;;
16385;SDS011;8302;51.154;4.456;2022-09-12T11:41:33;4.13;;;1.67;;
16385;SDS011;8302;51.154;4.456;2022-09-12T11:44:03;2.45;;;1.67;;
16385;SDS011;8302;51.154;4.456;2022-09-12T11:46:36;2.03;;;1.50;;
16385;SDS011;8302;51.154;4.456;2022-09-12T11:49:05;2.47;;;1.60;;
16385;SDS011;8302;51.154;4.456;2022-09-12T11:51:34;4.68;;;1.67;;
16385;SDS011;8302;51.154;4.456;2022-09-12T11:54:05;3.35;;;1.80;;
16385;SDS011;8302;51.154;4.456;2022-09-12T11:56:38;1.67;;;1.42;;
16385;SDS011;8302;51.154;4.456;2022-09-12T11:59:08;5.38;;;1.90;;
16385;SDS011;8302;51.154;4.456;2022-09-12T12:01:39;1.85;;;1.55;;
16385;SDS011;8302;51.154;4.456;2022-09-12T12:04:14;2.40;;;1.92;;
16385;SDS011;8302;51.154;4.456;2022-09-12T12:06:46;2.65;;;1.55;;
16385;SDS011;8302;51.154;4.456;2022-09-12T12:09:17;2.20;;;1.83;;
16385;SDS011;8302;51.154;4.456;2022-09-12T12:11:46;4.30;;;2.47;;
16385;SDS011;8302;51.154;4.456;2022-09-12T12:14:16;2.13;;;1.75;;
16385;SDS011;8302;51.154;4.456;2022-09-12T12:16:44;3.47;;;1.90;;
16385;SDS011;8302;51.154;4.456;2022-09-12T12:19:22;3.35;;;2.20;;
16385;SDS011;8302;51.154;4.456;2022-09-12T12:21:53;1.83;;;1.40;;
16385;SDS011;8302;51.154;4.456;2022-09-12T12:24:23;2.72;;;1.35;;
16385;SDS011;8302;51.154;4.456;2022-09-12T12:26:55;4.63;;;1.40;;
16385;SDS011;8302;51.154;4.456;2022-09-12T12:29:37;1.63;;;1.13;;
16385;SDS011;8302;51.154;4.456;2022-09-12T12:32:20;1.83;;;1.23;;
16385;SDS011;8302;51.154;4.456;2022-09-12T12:34:48;1.80;;;1.40;;
16385;SDS011;8302;51.154;4.456;2022-09-12T12:40:07;2.70;;;1.70;;
16385;SDS011;8302;51.154;4.456;2022-09-12T12:48:25;3.60;;;1.55;;
16385;SDS011;8302;51.154;4.456;2022-09-12T12:53:39;1.58;;;1.40;;
16385;SDS011;8302;51.154;4.456;2022-09-12T12:56:20;2.28;;;1.60;;
16385;SDS011;8302;51.154;4.456;2022-09-12T12:58:55;1.95;;;1.20;;
16385;SDS011;8302;51.154;4.456;2022-09-12T13:01:24;2.45;;;1.55;;
16385;SDS011;8302;51.154;4.456;2022-09-12T13:03:53;2.97;;;1.65;;
16385;SDS011;8302;51.154;4.456;2022-09-12T13:06:24;3.10;;;1.42;;
16385;SDS011;8302;51.154;4.456;2022-09-12T13:08:57;2.83;;;1.30;;
16385;SDS011;8302;51.154;4.456;2022-09-12T13:11:30;1.85;;;1.48;;
16385;SDS011;8302;51.154;4.456;2022-09-12T13:14:00;3.13;;;1.60;;
16385;SDS011;8302;51.154;4.456;2022-09-12T13:16:29;2.90;;;1.38;;
16385;SDS011;8302;51.154;4.456;2022-09-12T13:18:56;4.80;;;1.45;;
16385;SDS011;8302;51.154;4.456;2022-09-12T13:21:28;1.73;;;1.38;;
16385;SDS011;8302;51.154;4.456;2022-09-12T13:23:59;2.15;;;1.50;;
16385;SDS011;8302;51.154;4.456;2022-09-12T13:26:28;4.18;;;1.27;;
16385;SDS011;8302;51.154;4.456;2022-09-12T13:29:10;2.30;;;1.50;;
16385;SDS011;8302;51.154;4.456;2022-09-12T13:31:38;3.58;;;1.50;;
16385;SDS011;8302;51.154;4.456;2022-09-12T13:34:12;1.90;;;1.23;;
16385;SDS011;8302;51.154;4.456;2022-09-12T13:36:49;2.63;;;1.27;;
16385;SDS011;8302;51.154;4.456;2022-09-12T13:39:20;3.85;;;1.17;;
16385;SDS011;8302;51.154;4.456;2022-09-12T13:42:03;1.88;;;1.40;;
16385;SDS011;8302;51.154;4.456;2022-09-12T13:44:36;1.67;;;1.27;;
16385;SDS011;8302;51.154;4.456;2022-09-12T13:47:06;2.28;;;1.30;;
16385;SDS011;8302;51.154;4.456;2022-09-12T13:49:37;2.03;;;1.33;;
16385;SDS011;8302;51.154;4.456;2022-09-12T13:52:07;3.90;;;1.45;;
16385;SDS011;8302;51.154;4.456;2022-09-12T13:54:36;2.65;;;1.25;;
16385;SDS011;8302;51.154;4.456;2022-09-12T13:57:04;1.88;;;1.40;;
16385;SDS011;8302;51.154;4.456;2022-09-12T13:59:38;3.78;;;1.35;;
16385;SDS011;8302;51.154;4.456;2022-09-12T14:02:15;2.78;;;1.30;;
16385;SDS011;8302;51.154;4.456;2022-09-12T14:04:45;2.92;;;1.35;;
16385;SDS011;8302;51.154;4.456;2022-09-12T14:07:48;2.67;;;1.50;;
16385;SDS011;8302;51.154;4.456;2022-09-12T14:10:25;3.65;;;1.30;;
16385;SDS011;8302;51.154;4.456;2022-09-12T14:12:54;1.52;;;1.20;;
16385;SDS011;8302;51.154;4.456;2022-09-12T14:15:25;1.60;;;1.25;;
16385;SDS011;8302;51.154;4.456;2022-09-12T14:17:54;2.22;;;1.40;;
16385;SDS011;8302;51.154;4.456;2022-09-12T14:20:27;2.17;;;1.40;;
16385;SDS011;8302;51.154;4.456;2022-09-12T14:22:58;2.65;;;1.60;;
16385;SDS011;8302;51.154;4.456;2022-09-12T14:25:33;2.22;;;1.20;;
16385;SDS011;8302;51.154;4.456;2022-09-12T14:28:02;2.28;;;0.93;;
16385;SDS011;8302;51.154;4.456;2022-09-12T14:30:33;3.53;;;0.77;;
16385;SDS011;8302;51.154;4.456;2022-09-12T14:33:11;0.47;;;0.47;;
16385;SDS011;8302;51.154;4.456;2022-09-12T14:35:42;0.35;;;0.35;;
16385;SDS011;8302;51.154;4.456;2022-09-12T14:38:12;0.93;;;0.80;;
16385;SDS011;8302;51.154;4.456;2022-09-12T14:40:45;1.25;;;1.00;;
16385;SDS011;8302;51.154;4.456;2022-09-12T14:43:16;0.68;;;0.57;;
16385;SDS011;8302;51.154;4.456;2022-09-12T14:45:51;0.47;;;0.47;;
16385;SDS011;8302;51.154;4.456;2022-09-12T14:48:19;0.40;;;0.35;;
16385;SDS011;8302;51.154;4.456;2022-09-12T14:50:50;1.15;;;0.43;;
16385;SDS011;8302;51.154;4.456;2022-09-12T14:53:25;0.82;;;0.40;;
16385;SDS011;8302;51.154;4.456;2022-09-12T14:56:02;1.20;;;0.60;;
16385;SDS011;8302;51.154;4.456;2022-09-12T14:58:32;0.40;;;0.40;;
16385;SDS011;8302;51.154;4.456;2022-09-12T15:01:02;0.68;;;0.52;;
16385;SDS011;8302;51.154;4.456;2022-09-12T15:03:30;0.90;;;0.80;;
16385;SDS011;8302;51.154;4.456;2022-09-12T15:05:58;0.40;;;0.40;;
16385;SDS011;8302;51.154;4.456;2022-09-12T15:08:28;0.90;;;0.73;;
16385;SDS011;8302;51.154;4.456;2022-09-12T15:10:56;0.70;;;0.60;;
16385;SDS011;8302;51.154;4.456;2022-09-12T15:13:24;0.40;;;0.40;;
16385;SDS011;8302;51.154;4.456;2022-09-12T15:15:53;0.40;;;0.40;;
16385;SDS011;8302;51.154;4.456;2022-09-12T15:18:23;0.30;;;0.30;;
16385;SDS011;8302;51.154;4.456;2022-09-12T15:20:52;0.30;;;0.30;;
16385;SDS011;8302;51.154;4.456;2022-09-12T15:23:25;0.22;;;0.22;;
16385;SDS011;8302;51.154;4.456;2022-09-12T15:25:53;0.85;;;0.60;;
16385;SDS011;8302;51.154;4.456;2022-09-12T15:28:21;1.10;;;0.80;;
16385;SDS011;8302;51.154;4.456;2022-09-12T15:30:49;1.45;;;1.00;;
16385;SDS011;8302;51.154;4.456;2022-09-12T15:33:19;0.88;;;0.75;;
16385;SDS011;8302;51.154;4.456;2022-09-12T15:35:49;1.00;;;0.73;;
16385;SDS011;8302;51.154;4.456;2022-09-12T15:38:17;0.60;;;0.60;;